Time;durP1;ratioP1;P1;durP2;ratioP2;P2;SDS_P1;SDS_P2;PMS_P1;PMS_P2;Temp;Humidity;BMP_temperature;BMP_pressure;BME280_temperature;BME280_humidity;BME280_pressure;Samples;Min_cycle;Max_cycle;Signal;HPM_P1;HPM_P2
2023/03/01 00:01:25;;;;;;;12.70;6.88;;;;;;;;;;4994287;28;20023;-80
2023/03/01 00:03:51;;;;;;;16.13;7.65;;;;;;;;;;4994616;28;20076;-80
2023/03/01 00:06:17;;;;;;;17.38;8.40;;;;;;;;;;4991872;28;20176;-80
2023/03/01 00:08:43;;;;;;;16.92;7.15;;;;;;;;;;5009520;28;20118;-78
2023/03/01 00:11:10;;;;;;;14.10;6.93;;;;;;;;;;4992362;28;20441;-78
2023/03/01 00:13:36;;;;;;;14.35;6.78;;;;;;;;;;5003813;28;20038;-81
2023/03/01 00:16:04;;;;;;;14.43;7.38;;;;;;;;;;4997266;28;20407;-80
2023/03/01 00:18:29;;;;;;;15.07;6.80;;;;;;;;;;5001067;28;20061;-80
2023/03/01 00:20:55;;;;;;;16.80;6.60;;;;;;;;;;4985240;28;20069;-80
2023/03/01 00:23:22;;;;;;;12.88;6.70;;;;;;;;;;4985571;28;20038;-80
2023/03/01 00:25:47;;;;;;;14.60;6.15;;;;;;;;;;4986199;28;20034;-78
2023/03/01 00:28:13;;;;;;;13.27;6.38;;;;;;;;;;4995259;28;20841;-78
2023/03/01 00:30:38;;;;;;;11.27;5.38;;;;;;;;;;4980970;28;20066;-78
2023/03/01 00:33:04;;;;;;;10.52;5.72;;;;;;;;;;4976681;28;20066;-79
2023/03/01 00:35:32;;;;;;;12.45;5.68;;;;;;;;;;5010506;28;20800;-80
2023/03/01 00:37:57;;;;;;;12.85;5.65;;;;;;;;;;5002340;28;20453;-80
2023/03/01 00:40:24;;;;;;;12.20;6.05;;;;;;;;;;4974667;28;20093;-80
2023/03/01 00:42:50;;;;;;;12.33;5.67;;;;;;;;;;4995414;28;20038;-80
2023/03/01 00:45:15;;;;;;;15.75;6.38;;;;;;;;;;5007462;28;20280;-80
2023/03/01 00:47:41;;;;;;;12.20;6.72;;;;;;;;;;4996788;28;20046;-80
2023/03/01 00:50:07;;;;;;;11.88;5.93;;;;;;;;;;4985778;28;20527;-80
2023/03/01 00:52:32;;;;;;;15.15;5.90;;;;;;;;;;4984008;28;20068;-80
2023/03/01 00:54:57;;;;;;;10.88;5.22;;;;;;;;;;4985027;28;20038;-80
2023/03/01 00:57:23;;;;;;;11.30;6.03;;;;;;;;;;5000267;28;20382;-78
2023/03/01 00:59:49;;;;;;;10.30;5.72;;;;;;;;;;5007790;28;20034;-79
2023/03/01 01:02:14;;;;;;;14.45;6.47;;;;;;;;;;4979758;28;20030;-79
2023/03/01 01:04:40;;;;;;;14.52;6.10;;;;;;;;;;5009826;28;20068;-80
2023/03/01 01:07:06;;;;;;;11.43;5.50;;;;;;;;;;4982556;28;20105;-78
2023/03/01 01:09:31;;;;;;;15.50;6.53;;;;;;;;;;5007875;28;20551;-78
2023/03/01 01:11:56;;;;;;;12.95;6.22;;;;;;;;;;4984721;28;20120;-78
2023/03/01 01:14:22;;;;;;;13.40;5.97;;;;;;;;;;5010499;28;20034;-78
2023/03/01 01:16:48;;;;;;;13.35;6.18;;;;;;;;;;5006352;28;20030;-78
2023/03/01 01:19:14;;;;;;;14.52;6.78;;;;;;;;;;4975907;28;20057;-78
2023/03/01 01:21:42;;;;;;;15.07;6.70;;;;;;;;;;4985003;28;20034;-78
2023/03/01 01:24:08;;;;;;;14.80;6.30;;;;;;;;;;4992121;28;20511;-80
2023/03/01 01:26:34;;;;;;;12.68;5.90;;;;;;;;;;4993560;28;20030;-80
2023/03/01 01:29:01;;;;;;;15.02;6.47;;;;;;;;;;4995514;28;20358;-80
2023/03/01 01:31:27;;;;;;;12.87;6.67;;;;;;;;;;4991449;28;20050;-81
2023/03/01 01:33:54;;;;;;;12.75;6.35;;;;;;;;;;4978857;28;20034;-81
2023/03/01 01:36:20;;;;;;;16.50;6.93;;;;;;;;;;4980114;28;20033;-81
2023/03/01 01:38:45;;;;;;;15.02;7.32;;;;;;;;;;4985211;28;20034;-79
2023/03/01 01:41:12;;;;;;;13.27;6.95;;;;;;;;;;4983232;28;20034;-79
2023/03/01 01:43:43;;;;;;;15.13;7.00;;;;;;;;;;4979754;28;20030;-79
2023/03/01 01:46:16;;;;;;;12.43;6.65;;;;;;;;;;4975265;28;20486;-78
2023/03/01 01:48:48;;;;;;;14.13;6.90;;;;;;;;;;5000528;28;20053;-79
2023/03/01 01:51:18;;;;;;;11.77;6.53;;;;;;;;;;5009881;28;20081;-79
2023/03/01 01:53:46;;;;;;;14.43;6.65;;;;;;;;;;4996467;28;20038;-78
2023/03/01 01:56:12;;;;;;;13.15;6.72;;;;;;;;;;4996081;28;20057;-78
2023/03/01 01:58:38;;;;;;;14.20;6.97;;;;;;;;;;5011833;28;20034;-78
2023/03/01 02:01:05;;;;;;;14.98;6.10;;;;;;;;;;5004114;28;20038;-78
2023/03/01 02:03:37;;;;;;;13.27;6.93;;;;;;;;;;5015119;28;20034;-78
2023/03/01 02:06:30;;;;;;;14.25;6.70;;;;;;;;;;4982315;28;20064;-78
2023/03/01 02:08:59;;;;;;;13.25;6.90;;;;;;;;;;4997210;28;20113;-79
2023/03/01 02:11:25;;;;;;;13.55;6.82;;;;;;;;;;4996201;28;20541;-78
2023/03/01 02:13:51;;;;;;;14.95;6.60;;;;;;;;;;4998617;28;20046;-79
2023/03/01 02:16:17;;;;;;;15.15;7.05;;;;;;;;;;4996894;28;20380;-78
2023/03/01 02:18:43;;;;;;;12.35;6.32;;;;;;;;;;4987060;28;20038;-78
2023/03/01 02:21:12;;;;;;;17.70;7.93;;;;;;;;;;4993176;28;20617;-78
2023/03/01 02:23:38;;;;;;;15.07;6.72;;;;;;;;;;5011575;28;20436;-79
2023/03/01 02:26:44;;;;;;;12.18;6.10;;;;;;;;;;4993442;28;20092;-79
2023/03/01 02:29:09;;;;;;;14.77;6.93;;;;;;;;;;4982667;28;20108;-79
2023/03/01 02:31:41;;;;;;;17.08;7.22;;;;;;;;;;5000403;28;20914;-79
2023/03/01 02:34:07;;;;;;;13.88;6.80;;;;;;;;;;4997123;28;20493;-79
2023/03/01 02:36:53;;;;;;;15.27;6.90;;;;;;;;;;4986283;28;20041;-79
2023/03/01 02:39:29;;;;;;;15.05;7.00;;;;;;;;;;4996397;28;20124;-79
2023/03/01 02:41:56;;;;;;;14.23;6.82;;;;;;;;;;4996258;28;20058;-78
2023/03/01 02:44:22;;;;;;;13.13;6.72;;;;;;;;;;4987604;28;20119;-79
2023/03/01 02:46:50;;;;;;;15.88;7.03;;;;;;;;;;4975113;28;20566;-79
2023/03/01 02:49:20;;;;;;;14.38;6.88;;;;;;;;;;4996929;28;20446;-79
2023/03/01 02:52:09;;;;;;;13.90;6.65;;;;;;;;;;4996326;28;20431;-79
2023/03/01 02:54:46;;;;;;;14.40;6.65;;;;;;;;;;5012527;28;20037;-79
2023/03/01 02:57:12;;;;;;;14.73;6.68;;;;;;;;;;4985413;28;20552;-78
2023/03/01 02:59:42;;;;;;;13.15;6.85;;;;;;;;;;4987829;28;20034;-78
2023/03/01 03:02:20;;;;;;;12.95;7.22;;;;;;;;;;5001984;28;20521;-79
2023/03/01 03:04:45;;;;;;;16.45;7.07;;;;;;;;;;4986660;28;20034;-79
2023/03/01 03:07:11;;;;;;;13.63;7.20;;;;;;;;;;4986348;28;20038;-79
2023/03/01 03:09:36;;;;;;;14.90;7.03;;;;;;;;;;5001993;28;20452;-79
2023/03/01 03:12:02;;;;;;;15.93;7.07;;;;;;;;;;5002554;28;20049;-79
2023/03/01 03:14:34;;;;;;;14.10;7.40;;;;;;;;;;4987264;28;20038;-79
2023/03/01 03:16:59;;;;;;;13.55;6.95;;;;;;;;;;4980974;28;20030;-79
2023/03/01 03:19:25;;;;;;;13.65;7.00;;;;;;;;;;5001961;28;20805;-78
2023/03/01 03:21:50;;;;;;;13.68;7.10;;;;;;;;;;4978200;28;20117;-79
2023/03/01 03:24:17;;;;;;;12.70;6.97;;;;;;;;;;5002099;28;20038;-79
2023/03/01 03:26:42;;;;;;;13.85;6.25;;;;;;;;;;5001384;28;20030;-79
2023/03/01 03:29:08;;;;;;;14.45;6.80;;;;;;;;;;4995402;28;20041;-80
2023/03/01 03:31:33;;;;;;;13.35;6.50;;;;;;;;;;4999576;28;20044;-80
2023/03/01 03:33:59;;;;;;;15.65;7.03;;;;;;;;;;4994346;28;20121;-79
2023/03/01 03:36:24;;;;;;;20.73;7.97;;;;;;;;;;4994080;28;20038;-79
2023/03/01 03:38:50;;;;;;;16.42;7.10;;;;;;;;;;5002314;28;20528;-79
2023/03/01 03:41:16;;;;;;;14.70;7.05;;;;;;;;;;4993412;28;20483;-79
2023/03/01 03:43:43;;;;;;;12.48;6.55;;;;;;;;;;4994345;28;20038;-79
2023/03/01 03:46:10;;;;;;;13.13;6.55;;;;;;;;;;5001605;28;20510;-80
2023/03/01 03:48:40;;;;;;;12.27;6.60;;;;;;;;;;4992549;28;20030;-80
2023/03/01 03:51:06;;;;;;;14.75;6.85;;;;;;;;;;4985158;28;20092;-79
2023/03/01 03:53:32;;;;;;;13.68;7.20;;;;;;;;;;4980170;28;20034;-80
2023/03/01 03:55:58;;;;;;;13.52;6.60;;;;;;;;;;4985067;28;20046;-79
2023/03/01 03:58:25;;;;;;;13.25;6.30;;;;;;;;;;4993020;28;20083;-79
2023/03/01 04:00:55;;;;;;;12.48;6.72;;;;;;;;;;4984578;28;20502;-79
2023/03/01 04:03:22;;;;;;;13.25;6.45;;;;;;;;;;4991939;28;20100;-79
2023/03/01 04:05:49;;;;;;;11.52;6.60;;;;;;;;;;5007914;28;20524;-80
2023/03/01 04:08:14;;;;;;;13.43;6.40;;;;;;;;;;4976437;28;20065;-79
2023/03/01 04:10:43;;;;;;;12.55;6.53;;;;;;;;;;4998590;28;20133;-79
2023/03/01 04:13:13;;;;;;;15.75;7.70;;;;;;;;;;4974371;28;20516;-79
2023/03/01 04:15:39;;;;;;;13.00;6.78;;;;;;;;;;4989623;28;20445;-81
2023/03/01 04:18:06;;;;;;;12.10;6.05;;;;;;;;;;5009471;28;20038;-81
2023/03/01 04:20:34;;;;;;;16.30;7.35;;;;;;;;;;4975642;28;20103;-79
2023/03/01 04:23:12;;;;;;;12.00;6.78;;;;;;;;;;4978280;28;20149;-81
2023/03/01 04:25:53;;;;;;;14.40;6.93;;;;;;;;;;4978359;28;20057;-81
2023/03/01 04:28:20;;;;;;;12.93;6.78;;;;;;;;;;5001472;28;20378;-81
2023/03/01 04:30:45;;;;;;;12.98;7.35;;;;;;;;;;4979957;28;20081;-81
2023/03/01 04:33:11;;;;;;;15.13;6.85;;;;;;;;;;5003953;28;20066;-81
2023/03/01 04:35:37;;;;;;;16.63;6.85;;;;;;;;;;4984512;28;20031;-81
2023/03/01 04:38:03;;;;;;;14.63;6.70;;;;;;;;;;4974909;28;20046;-82
2023/03/01 04:40:29;;;;;;;17.35;7.68;;;;;;;;;;4984882;28;20121;-81
2023/03/01 04:42:54;;;;;;;14.88;6.93;;;;;;;;;;4977798;28;20166;-81
2023/03/01 04:45:19;;;;;;;13.85;6.88;;;;;;;;;;4976128;28;20030;-81
2023/03/01 04:47:46;;;;;;;15.18;7.45;;;;;;;;;;4994269;28;20437;-82
2023/03/01 04:50:14;;;;;;;13.50;7.03;;;;;;;;;;4985254;28;20498;-81
2023/03/01 04:52:40;;;;;;;14.75;6.70;;;;;;;;;;5000630;28;20426;-81
2023/03/01 04:55:06;;;;;;;15.07;6.28;;;;;;;;;;4983857;28;20037;-81
2023/03/01 04:57:31;;;;;;;12.77;6.00;;;;;;;;;;5007116;28;20486;-80
2023/03/01 04:59:57;;;;;;;16.00;7.45;;;;;;;;;;5002713;28;20036;-81
2023/03/01 05:02:22;;;;;;;15.35;6.85;;;;;;;;;;4984051;28;20038;-82
2023/03/01 05:04:48;;;;;;;14.73;6.95;;;;;;;;;;4997449;28;20137;-81
2023/03/01 05:07:19;;;;;;;13.50;6.20;;;;;;;;;;4992184;28;20057;-81
2023/03/01 05:09:47;;;;;;;14.65;6.47;;;;;;;;;;4979940;28;20049;-82
2023/03/01 05:12:13;;;;;;;18.60;6.63;;;;;;;;;;4984200;28;20117;-80
2023/03/01 05:14:39;;;;;;;12.20;6.63;;;;;;;;;;5008119;28;20231;-81
2023/03/01 05:17:04;;;;;;;14.85;6.72;;;;;;;;;;4983498;28;20110;-81
2023/03/01 05:19:31;;;;;;;15.90;6.53;;;;;;;;;;4974266;28;20026;-81
2023/03/01 05:22:06;;;;;;;12.90;6.75;;;;;;;;;;4977667;28;20368;-81
2023/03/01 05:24:33;;;;;;;14.15;5.75;;;;;;;;;;4985140;28;20034;-80
2023/03/01 05:26:59;;;;;;;14.48;6.80;;;;;;;;;;4991897;28;20730;-81
2023/03/01 05:29:25;;;;;;;13.02;7.13;;;;;;;;;;5000465;28;20041;-80
2023/03/01 05:31:53;;;;;;;16.27;7.00;;;;;;;;;;4994915;28;20770;-80
2023/03/01 05:34:19;;;;;;;;;;;;;;;;;;4985770;28;20084;-80
2023/03/01 05:36:44;;;;;;;13.05;5.90;;;;;;;;;;5007363;28;19924;-80
2023/03/01 05:39:09;;;;;;;13.30;6.60;;;;;;;;;;4986062;28;20034;-80
2023/03/01 05:41:35;;;;;;;13.32;6.65;;;;;;;;;;4984027;28;20030;-80
2023/03/01 05:44:00;;;;;;;14.07;6.88;;;;;;;;;;5000539;28;20069;-80
2023/03/01 05:46:26;;;;;;;13.93;6.63;;;;;;;;;;4983526;28;20050;-78
2023/03/01 05:48:51;;;;;;;18.25;6.78;;;;;;;;;;4974634;28;20042;-78
2023/03/01 05:51:17;;;;;;;13.25;6.68;;;;;;;;;;4993616;28;20129;-78
2023/03/01 05:53:42;;;;;;;15.68;7.05;;;;;;;;;;5009738;28;20042;-78
2023/03/01 05:56:08;;;;;;;14.88;6.93;;;;;;;;;;4984317;28;20035;-78
2023/03/01 05:58:33;;;;;;;13.75;6.60;;;;;;;;;;4997955;28;20030;-78
2023/03/01 06:00:58;;;;;;;15.85;7.65;;;;;;;;;;4984680;28;20155;-78
2023/03/01 06:03:24;;;;;;;12.88;6.88;;;;;;;;;;4979241;28;20120;-78
2023/03/01 06:05:49;;;;;;;15.60;7.47;;;;;;;;;;4983120;28;20030;-78
2023/03/01 06:08:15;;;;;;;14.80;7.25;;;;;;;;;;4974458;28;20065;-78
2023/03/01 06:10:40;;;;;;;15.85;7.07;;;;;;;;;;4990315;28;20038;-78
2023/03/01 06:13:06;;;;;;;18.92;7.70;;;;;;;;;;4983530;28;20072;-78
2023/03/01 06:15:31;;;;;;;13.50;6.35;;;;;;;;;;4983968;28;20034;-78
2023/03/01 06:17:57;;;;;;;12.30;7.05;;;;;;;;;;4993588;28;20121;-78
2023/03/01 06:20:24;;;;;;;15.45;6.90;;;;;;;;;;4977160;28;20092;-78
2023/03/01 06:22:50;;;;;;;;;;;;;;;;;;4984345;28;20042;-78
2023/03/01 06:25:18;;;;;;;13.18;6.43;;;;;;;;;;4996920;28;19925;-78
2023/03/01 06:27:45;;;;;;;12.52;6.43;;;;;;;;;;5008650;28;20046;-78
2023/03/01 06:30:13;;;;;;;12.05;6.80;;;;;;;;;;4981549;28;20508;-78
2023/03/01 06:32:41;;;;;;;12.98;6.72;;;;;;;;;;4992082;28;20778;-78
2023/03/01 06:35:08;;;;;;;15.43;6.22;;;;;;;;;;4995290;28;20034;-77
2023/03/01 06:37:35;;;;;;;14.35;6.97;;;;;;;;;;4989745;28;20089;-79
2023/03/01 06:40:04;;;;;;;12.50;6.78;;;;;;;;;;4992362;28;20113;-79
2023/03/01 06:42:29;;;;;;;14.13;7.05;;;;;;;;;;4993528;28;20030;-80
2023/03/01 06:44:55;;;;;;;14.32;7.32;;;;;;;;;;5003330;28;20048;-80
2023/03/01 06:47:20;;;;;;;16.05;7.57;;;;;;;;;;4997392;28;20395;-79
2023/03/01 06:49:46;;;;;;;14.98;7.57;;;;;;;;;;4987936;28;20443;-79
2023/03/01 06:52:11;;;;;;;13.82;7.22;;;;;;;;;;5003397;28;20041;-78
2023/03/01 06:54:36;;;;;;;16.80;7.05;;;;;;;;;;4988037;28;20045;-78
2023/03/01 06:57:02;;;;;;;14.95;7.35;;;;;;;;;;4995432;28;20050;-78
2023/03/01 06:59:27;;;;;;;14.18;7.30;;;;;;;;;;4999637;28;20035;-79
2023/03/01 07:01:53;;;;;;;15.57;7.97;;;;;;;;;;4979875;28;20042;-79
2023/03/01 07:04:18;;;;;;;13.15;7.13;;;;;;;;;;4995049;28;20046;-79
2023/03/01 07:06:43;;;;;;;13.98;7.75;;;;;;;;;;4986005;28;20034;-79
2023/03/01 07:09:09;;;;;;;16.02;7.55;;;;;;;;;;4988559;28;20487;-79
2023/03/01 07:11:34;;;;;;;14.70;7.78;;;;;;;;;;4992188;28;20413;-79
2023/03/01 07:14:00;;;;;;;15.35;7.78;;;;;;;;;;4988219;28;20037;-80
2023/03/01 07:16:25;;;;;;;15.57;7.93;;;;;;;;;;4983404;28;20122;-80
2023/03/01 07:18:51;;;;;;;15.82;8.07;;;;;;;;;;4988559;28;20026;-79
2023/03/01 07:21:16;;;;;;;16.40;8.60;;;;;;;;;;4995971;28;20127;-79
2023/03/01 07:23:42;;;;;;;13.95;7.68;;;;;;;;;;4996283;28;20042;-80
2023/03/01 07:26:07;;;;;;;17.10;8.05;;;;;;;;;;4982829;28;20045;-79
2023/03/01 07:28:38;;;;;;;16.45;8.40;;;;;;;;;;4994655;28;20037;-79
2023/03/01 07:31:04;;;;;;;19.52;8.48;;;;;;;;;;4995297;28;20046;-79
2023/03/01 07:33:30;;;;;;;23.98;9.60;;;;;;;;;;4976283;28;20033;-79
2023/03/01 07:36:00;;;;;;;19.10;9.00;;;;;;;;;;4985782;28;20065;-79
2023/03/01 07:38:26;;;;;;;17.13;8.82;;;;;;;;;;4996110;28;20525;-80
2023/03/01 07:40:52;;;;;;;15.68;9.40;;;;;;;;;;4997994;28;20045;-80
2023/03/01 07:43:17;;;;;;;18.98;9.30;;;;;;;;;;4977314;28;20034;-79
2023/03/01 07:45:42;;;;;;;19.25;9.38;;;;;;;;;;4989532;28;20045;-79
2023/03/01 07:48:08;;;;;;;19.80;9.57;;;;;;;;;;4982666;28;20034;-79
2023/03/01 07:50:33;;;;;;;15.65;8.75;;;;;;;;;;4992306;28;20041;-79
2023/03/01 07:52:59;;;;;;;14.98;8.68;;;;;;;;;;5009757;28;20030;-79
2023/03/01 07:55:24;;;;;;;17.30;9.18;;;;;;;;;;4986480;28;20034;-78
2023/03/01 07:57:50;;;;;;;17.50;8.15;;;;;;;;;;4990548;28;20112;-79
2023/03/01 08:00:15;;;;;;;14.88;8.60;;;;;;;;;;4986761;28;20037;-79
2023/03/01 08:02:41;;;;;;;17.48;8.23;;;;;;;;;;4998896;28;20393;-79
2023/03/01 08:05:09;;;;;;;15.45;7.53;;;;;;;;;;4998648;28;20615;-79
2023/03/01 08:07:34;;;;;;;14.30;7.43;;;;;;;;;;4986111;28;20042;-79
2023/03/01 08:09:59;;;;;;;14.45;7.07;;;;;;;;;;4994394;28;20486;-79
2023/03/01 08:12:27;;;;;;;10.60;6.00;;;;;;;;;;4986729;28;20060;-79
2023/03/01 08:14:52;;;;;;;11.80;6.38;;;;;;;;;;4999568;28;20956;-79
2023/03/01 08:17:18;;;;;;;10.63;5.93;;;;;;;;;;4993415;28;20117;-79
2023/03/01 08:19:43;;;;;;;10.05;5.85;;;;;;;;;;5009938;28;20030;-79
2023/03/01 08:22:08;;;;;;;11.80;5.90;;;;;;;;;;5001603;28;20442;-79
2023/03/01 08:24:34;;;;;;;11.35;6.40;;;;;;;;;;5003072;28;20035;-79
2023/03/01 08:26:59;;;;;;;10.50;6.07;;;;;;;;;;5000889;28;20514;-79
2023/03/01 08:29:25;;;;;;;12.52;6.15;;;;;;;;;;4985648;28;20061;-79
2023/03/01 08:31:50;;;;;;;10.80;5.80;;;;;;;;;;4992945;28;20502;-79
2023/03/01 08:34:17;;;;;;;10.98;6.03;;;;;;;;;;4994980;28;20042;-79
2023/03/01 08:36:44;;;;;;;11.60;6.43;;;;;;;;;;4985328;28;20439;-79
2023/03/01 08:39:12;;;;;;;9.88;6.10;;;;;;;;;;4995199;28;20564;-79
2023/03/01 08:41:38;;;;;;;10.95;5.53;;;;;;;;;;4977954;28;20129;-79
2023/03/01 08:44:04;;;;;;;8.05;4.50;;;;;;;;;;4983660;28;20128;-79
2023/03/01 08:46:32;;;;;;;7.43;4.20;;;;;;;;;;5007585;28;20549;-79
2023/03/01 08:48:57;;;;;;;7.82;4.20;;;;;;;;;;4994354;28;20059;-79
2023/03/01 08:51:24;;;;;;;9.27;4.10;;;;;;;;;;4992154;28;20453;-79
2023/03/01 08:53:50;;;;;;;6.35;4.00;;;;;;;;;;4984092;28;20057;-79
2023/03/01 08:56:16;;;;;;;6.60;3.80;;;;;;;;;;4993221;28;20038;-79
2023/03/01 08:58:48;;;;;;;8.75;4.22;;;;;;;;;;4980512;28;20073;-79
2023/03/01 09:01:17;;;;;;;7.20;3.95;;;;;;;;;;4993687;28;20053;-79
2023/03/01 09:03:43;;;;;;;6.72;3.90;;;;;;;;;;4981123;28;20153;-79
2023/03/01 09:06:09;;;;;;;7.07;4.00;;;;;;;;;;4980438;28;20046;-79
2023/03/01 09:08:38;;;;;;;6.97;3.65;;;;;;;;;;4995213;28;20100;-79
2023/03/01 09:11:05;;;;;;;6.03;3.70;;;;;;;;;;4998393;28;20449;-79
2023/03/01 09:13:32;;;;;;;6.55;3.72;;;;;;;;;;4985968;28;20569;-79
2023/03/01 09:15:58;;;;;;;5.97;3.50;;;;;;;;;;4981539;28;20038;-79
2023/03/01 09:18:24;;;;;;;6.72;3.63;;;;;;;;;;4989347;28;20034;-79
2023/03/01 09:20:49;;;;;;;8.20;4.00;;;;;;;;;;5007501;28;20038;-79
2023/03/01 09:23:15;;;;;;;8.35;3.40;;;;;;;;;;4983766;28;20761;-79
2023/03/01 09:25:40;;;;;;;6.70;3.53;;;;;;;;;;4979134;28;20592;-79
2023/03/01 09:28:05;;;;;;;8.20;3.63;;;;;;;;;;5006169;28;20471;-79
2023/03/01 09:30:32;;;;;;;6.90;3.40;;;;;;;;;;4989322;28;20470;-79
2023/03/01 09:33:03;;;;;;;8.35;3.67;;;;;;;;;;5005866;28;20042;-80
2023/03/01 09:35:29;;;;;;;7.68;3.63;;;;;;;;;;4990044;28;20040;-81
2023/03/01 09:37:54;;;;;;;7.18;3.42;;;;;;;;;;4960010;28;20030;-81
2023/03/01 09:40:22;;;;;;;6.95;3.58;;;;;;;;;;4982333;28;20037;-79
2023/03/01 09:43:06;;;;;;;6.35;3.35;;;;;;;;;;4977393;28;20034;-80
2023/03/01 09:45:35;;;;;;;7.75;3.13;;;;;;;;;;4976219;28;20553;-80
2023/03/01 09:48:01;;;;;;;8.85;3.72;;;;;;;;;;4992036;28;20565;-80
2023/03/01 09:50:29;;;;;;;6.15;3.25;;;;;;;;;;4979504;28;20038;-80
2023/03/01 09:53:11;;;;;;;6.32;3.60;;;;;;;;;;4984952;28;20512;-80
2023/03/01 09:55:44;;;;;;;6.47;3.38;;;;;;;;;;5009474;28;20646;-79
2023/03/01 09:58:38;;;;;;;6.25;3.45;;;;;;;;;;5006372;28;20490;-80
2023/03/01 10:01:31;;;;;;;7.13;2.92;;;;;;;;;;5000216;28;20037;-80
2023/03/01 10:03:56;;;;;;;8.90;3.60;;;;;;;;;;4978046;28;20405;-80
2023/03/01 10:06:25;;;;;;;7.10;3.20;;;;;;;;;;4994368;28;20038;-80
2023/03/01 10:08:55;;;;;;;7.57;3.42;;;;;;;;;;5006615;28;20030;-80
2023/03/01 10:11:32;;;;;;;6.78;3.10;;;;;;;;;;5009648;28;20038;-80
2023/03/01 10:14:36;;;;;;;6.45;3.20;;;;;;;;;;4987879;28;20038;-80
2023/03/01 10:17:02;;;;;;;6.43;2.55;;;;;;;;;;4992535;28;20038;-80
2023/03/01 10:19:32;;;;;;;7.35;3.20;;;;;;;;;;5005047;28;20126;-79
2023/03/01 10:22:21;;;;;;;6.53;2.95;;;;;;;;;;5003380;28;20405;-79
2023/03/01 10:24:47;;;;;;;7.15;3.00;;;;;;;;;;4987979;28;20034;-79
2023/03/01 10:27:24;;;;;;;9.35;2.78;;;;;;;;;;5010039;28;20042;-79
2023/03/01 10:30:11;;;;;;;6.55;2.83;;;;;;;;;;4987830;28;20038;-80
2023/03/01 10:32:37;;;;;;;7.10;3.05;;;;;;;;;;5009709;28;20397;-80
2023/03/01 10:35:17;;;;;;;5.90;3.00;;;;;;;;;;4988378;28;20042;-79
2023/03/01 10:38:03;;;;;;;5.22;2.42;;;;;;;;;;5003797;28;20925;-80
2023/03/01 10:40:29;;;;;;;5.45;2.45;;;;;;;;;;4995303;28;20050;-80
2023/03/01 10:42:58;;;;;;;6.45;2.50;;;;;;;;;;4995449;28;20736;-80
2023/03/01 10:45:30;;;;;;;6.20;2.35;;;;;;;;;;4979558;28;20250;-80
2023/03/01 10:48:16;;;;;;;6.47;2.50;;;;;;;;;;4992144;28;20046;-79
2023/03/01 10:50:46;;;;;;;6.03;2.60;;;;;;;;;;5002590;28;20047;-79
2023/03/01 10:53:38;;;;;;;5.40;2.65;;;;;;;;;;4996456;28;20046;-78
2023/03/01 10:56:07;;;;;;;5.95;2.75;;;;;;;;;;4978668;28;20180;-79
2023/03/01 10:58:34;;;;;;;4.95;2.70;;;;;;;;;;4997587;28;20045;-79
2023/03/01 11:01:16;;;;;;;7.05;2.88;;;;;;;;;;4986692;28;20580;-79
2023/03/01 11:03:42;;;;;;;6.60;2.95;;;;;;;;;;5002074;28;20030;-79
2023/03/01 11:06:10;;;;;;;8.18;3.10;;;;;;;;;;4985823;28;20540;-79
2023/03/01 11:08:38;;;;;;;7.07;2.72;;;;;;;;;;4997790;28;20053;-79
2023/03/01 11:11:17;;;;;;;6.28;2.78;;;;;;;;;;5009166;28;20038;-79
2023/03/01 11:13:50;;;;;;;6.68;2.90;;;;;;;;;;4991957;28;20064;-79
2023/03/01 11:16:23;;;;;;;6.80;2.92;;;;;;;;;;4983833;28;20444;-79
2023/03/01 11:18:56;;;;;;;8.18;2.80;;;;;;;;;;4986230;28;20120;-79
2023/03/01 11:21:21;;;;;;;6.57;2.55;;;;;;;;;;4978000;28;20034;-79
2023/03/01 11:23:47;;;;;;;8.73;3.25;;;;;;;;;;4987815;28;20501;-79
2023/03/01 11:26:13;;;;;;;6.82;2.70;;;;;;;;;;5003587;28;20053;-79
2023/03/01 11:28:40;;;;;;;6.47;2.75;;;;;;;;;;5003736;28;20421;-79
2023/03/01 11:31:12;;;;;;;6.78;2.75;;;;;;;;;;4984797;28;20038;-79
2023/03/01 11:33:42;;;;;;;5.45;2.60;;;;;;;;;;4980736;28;20069;-80
2023/03/01 11:36:35;;;;;;;5.10;2.30;;;;;;;;;;5009907;28;20061;-79
2023/03/01 11:39:18;;;;;;;5.18;2.55;;;;;;;;;;4992655;28;20498;-79
2023/03/01 11:41:48;;;;;;;5.30;2.30;;;;;;;;;;4993700;28;20516;-79
2023/03/01 11:44:14;;;;;;;6.15;3.95;;;;;;;;;;4987556;28;20041;-79
2023/03/01 11:46:49;;;;;;;7.45;3.53;;;;;;;;;;5002767;28;20104;-79
2023/03/01 11:49:33;;;;;;;6.28;2.80;;;;;;;;;;4993207;28;20081;-79
2023/03/01 11:52:16;;;;;;;4.45;2.42;;;;;;;;;;4991330;28;20052;-79
2023/03/01 11:54:54;;;;;;;5.45;2.85;;;;;;;;;;5008577;28;20041;-79
2023/03/01 11:57:52;;;;;;;7.00;3.15;;;;;;;;;;5008980;28;20147;-79
2023/03/01 12:00:20;;;;;;;4.45;2.60;;;;;;;;;;4993690;28;20093;-79
2023/03/01 12:03:22;;;;;;;5.65;3.08;;;;;;;;;;5010380;28;20069;-80
2023/03/01 12:06:09;;;;;;;13.65;3.55;;;;;;;;;;4981478;28;20034;-79
2023/03/01 12:08:42;;;;;;;6.70;3.50;;;;;;;;;;5009938;28;20054;-80
2023/03/01 12:11:34;;;;;;;6.25;2.90;;;;;;;;;;4977023;28;20116;-80
2023/03/01 12:14:28;;;;;;;6.47;3.22;;;;;;;;;;5009166;28;20441;-80
2023/03/01 12:17:15;;;;;;;6.68;3.40;;;;;;;;;;4993597;28;20046;-79
2023/03/01 12:19:57;;;;;;;6.20;3.25;;;;;;;;;;4999144;28;20042;-80
2023/03/01 12:22:31;;;;;;;5.63;2.60;;;;;;;;;;5006582;28;20072;-80
2023/03/01 12:25:15;;;;;;;8.80;3.75;;;;;;;;;;5009416;28;20043;-80
2023/03/01 12:28:01;;;;;;;6.22;3.22;;;;;;;;;;5007242;28;20034;-79
2023/03/01 12:30:39;;;;;;;7.95;3.40;;;;;;;;;;5005821;28;20117;-80
2023/03/01 12:33:13;;;;;;;7.32;3.65;;;;;;;;;;4993924;28;20406;-80
2023/03/01 12:36:25;;;;;;;7.47;3.70;;;;;;;;;;5007209;28;20038;-80
2023/03/01 12:39:13;;;;;;;10.52;3.60;;;;;;;;;;4932066;28;20590;-78
2023/03/01 12:41:43;;;;;;;5.30;3.10;;;;;;;;;;5002202;28;20437;-78
2023/03/01 12:44:28;;;;;;;7.53;2.90;;;;;;;;;;4995208;28;20045;-78
2023/03/01 12:47:14;;;;;;;5.05;2.63;;;;;;;;;;4989126;28;20505;-79
2023/03/01 12:50:21;;;;;;;7.28;2.60;;;;;;;;;;5008886;28;20401;-79
2023/03/01 12:52:50;;;;;;;5.82;2.50;;;;;;;;;;4955887;28;20034;-79
2023/03/01 12:55:30;;;;;;;4.40;2.10;;;;;;;;;;4996717;28;20061;-79
2023/03/01 12:58:24;;;;;;;5.97;1.90;;;;;;;;;;4995835;28;20033;-79
2023/03/01 13:01:07;;;;;;;7.35;2.20;;;;;;;;;;4994525;28;20077;-79
2023/03/01 13:03:53;;;;;;;4.97;1.80;;;;;;;;;;5007354;28;20034;-78
2023/03/01 13:06:23;;;;;;;4.13;1.90;;;;;;;;;;5007079;28;20039;-78
2023/03/01 13:09:00;;;;;;;4.53;1.70;;;;;;;;;;5009543;28;20072;-79
2023/03/01 13:11:25;;;;;;;3.83;1.80;;;;;;;;;;4973035;28;20165;-78
2023/03/01 13:14:38;;;;;;;4.70;2.00;;;;;;;;;;4985067;28;20104;-78
2023/03/01 13:17:04;;;;;;;6.20;2.30;;;;;;;;;;5002288;28;20112;-78
2023/03/01 13:19:31;;;;;;;4.72;1.80;;;;;;;;;;4975541;28;20480;-78
2023/03/01 13:21:56;;;;;;;5.28;2.30;;;;;;;;;;4985042;28;20229;-78
2023/03/01 13:24:41;;;;;;;6.20;1.90;;;;;;;;;;4982952;28;20120;-78
2023/03/01 13:27:07;;;;;;;4.78;2.03;;;;;;;;;;5000576;28;20038;-78
2023/03/01 13:29:47;;;;;;;4.93;1.90;;;;;;;;;;5007771;28;20651;-78
2023/03/01 13:32:33;;;;;;;4.68;1.90;;;;;;;;;;5008963;28;20058;-78
2023/03/01 13:35:14;;;;;;;5.15;2.45;;;;;;;;;;5000762;28;20038;-78
2023/03/01 13:37:40;;;;;;;4.38;2.15;;;;;;;;;;4992154;28;20076;-78
2023/03/01 13:40:18;;;;;;;7.47;2.20;;;;;;;;;;4978313;28;20568;-78
2023/03/01 13:42:46;;;;;;;5.25;2.15;;;;;;;;;;4993293;28;20033;-81
2023/03/01 13:45:34;;;;;;;5.22;2.00;;;;;;;;;;4984786;28;20463;-78
2023/03/01 13:48:04;;;;;;;5.70;2.10;;;;;;;;;;4996017;28;20042;-78
2023/03/01 13:50:35;;;;;;;3.90;2.03;;;;;;;;;;4989225;28;20093;-79
2023/03/01 13:53:03;;;;;;;6.65;2.20;;;;;;;;;;4973524;28;20692;-80
2023/03/01 13:55:45;;;;;;;6.82;2.22;;;;;;;;;;4983406;28;20486;-80
2023/03/01 13:58:25;;;;;;;4.32;2.33;;;;;;;;;;4996727;28;20117;-79
2023/03/01 14:01:04;;;;;;;6.03;2.35;;;;;;;;;;4999622;28;20045;-80
2023/03/01 14:03:31;;;;;;;5.60;2.00;;;;;;;;;;4992392;28;20037;-80
2023/03/01 14:06:08;;;;;;;4.90;1.58;;;;;;;;;;4998955;28;20100;-79
2023/03/01 14:08:42;;;;;;;4.63;2.38;;;;;;;;;;4997055;28;20139;-80
2023/03/01 14:11:39;;;;;;;5.45;1.90;;;;;;;;;;4975224;28;20066;-79
2023/03/01 14:14:15;;;;;;;5.82;2.03;;;;;;;;;;4992844;28;20096;-77
2023/03/01 14:16:41;;;;;;;5.70;2.22;;;;;;;;;;4997970;28;20433;-79
2023/03/01 14:19:27;;;;;;;10.20;2.60;;;;;;;;;;5009166;28;20066;-80
2023/03/01 14:22:03;;;;;;;11.10;2.30;;;;;;;;;;4989535;28;20453;-80
2023/03/01 14:24:29;;;;;;;5.18;2.35;;;;;;;;;;4993630;28;20117;-80
2023/03/01 14:26:54;;;;;;;4.95;2.10;;;;;;;;;;4991385;28;20046;-79
2023/03/01 14:29:26;;;;;;;7.03;2.15;;;;;;;;;;5006444;28;20105;-80
2023/03/01 14:31:52;;;;;;;5.60;2.22;;;;;;;;;;4994353;28;20048;-80
2023/03/01 14:34:23;;;;;;;4.85;2.22;;;;;;;;;;5002245;28;20026;-82
2023/03/01 14:36:49;;;;;;;5.28;2.53;;;;;;;;;;4981806;28;20125;-81
2023/03/01 14:39:19;;;;;;;7.57;2.13;;;;;;;;;;4991636;28;20368;-82
2023/03/01 14:41:45;;;;;;;4.13;1.80;;;;;;;;;;4994551;28;20037;-83
2023/03/01 14:44:22;;;;;;;5.18;1.95;;;;;;;;;;4983920;28;20030;-81
2023/03/01 14:46:52;;;;;;;3.83;1.52;;;;;;;;;;4993402;28;20045;-81
2023/03/01 14:49:23;;;;;;;5.15;1.98;;;;;;;;;;4975211;28;20041;-81
2023/03/01 14:51:54;;;;;;;4.78;1.90;;;;;;;;;;4992703;28;20096;-81
2023/03/01 14:54:29;;;;;;;4.43;1.92;;;;;;;;;;4993927;28;20034;-81